sensor_id;sensor_type;location;lat;lon;timestamp;P1;durP1;ratioP1;P2;durP2;ratioP2
81807;SDS011;71241;13.676;100.700;2023-10-13T00:00:45;24.35;;;19.63;;
81807;SDS011;71241;13.676;100.700;2023-10-13T00:03:19;23.63;;;20.77;;
81807;SDS011;71241;13.676;100.700;2023-10-13T00:05:57;32.33;;;23.63;;
81807;SDS011;71241;13.676;100.700;2023-10-13T00:08:34;33.47;;;25.92;;
81807;SDS011;71241;13.676;100.700;2023-10-13T00:11:42;32.08;;;27.30;;
81807;SDS011;71241;13.676;100.700;2023-10-13T00:14:16;33.83;;;25.52;;
81807;SDS011;71241;13.676;100.700;2023-10-13T00:16:50;30.73;;;24.10;;
81807;SDS011;71241;13.676;100.700;2023-10-13T00:19:35;32.33;;;24.65;;
81807;SDS011;71241;13.676;100.700;2023-10-13T00:22:21;38.35;;;27.67;;
81807;SDS011;71241;13.676;100.700;2023-10-13T00:24:54;37.70;;;29.70;;
81807;SDS011;71241;13.676;100.700;2023-10-13T00:27:30;31.08;;;24.38;;
81807;SDS011;71241;13.676;100.700;2023-10-13T00:30:10;38.63;;;32.97;;
81807;SDS011;71241;13.676;100.700;2023-10-13T00:33:02;31.73;;;24.15;;
81807;SDS011;71241;13.676;100.700;2023-10-13T00:36:18;27.45;;;22.50;;
81807;SDS011;71241;13.676;100.700;2023-10-13T00:38:49;23.20;;;19.17;;
81807;SDS011;71241;13.676;100.700;2023-10-13T00:41:21;22.60;;;18.05;;
81807;SDS011;71241;13.676;100.700;2023-10-13T00:44:11;20.73;;;17.73;;
81807;SDS011;71241;13.676;100.700;2023-10-13T00:46:45;20.33;;;15.90;;
81807;SDS011;71241;13.676;100.700;2023-10-13T00:49:16;21.00;;;15.90;;
81807;SDS011;71241;13.676;100.700;2023-10-13T00:51:51;22.02;;;16.70;;
81807;SDS011;71241;13.676;100.700;2023-10-13T00:57:07;22.83;;;15.45;;
81807;SDS011;71241;13.676;100.700;2023-10-13T00:59:53;17.88;;;13.82;;
81807;SDS011;71241;13.676;100.700;2023-10-13T01:02:28;19.42;;;16.23;;
81807;SDS011;71241;13.676;100.700;2023-10-13T01:05:09;15.85;;;14.05;;
81807;SDS011;71241;13.676;100.700;2023-10-13T01:07:46;17.05;;;12.38;;
81807;SDS011;71241;13.676;100.700;2023-10-13T01:10:22;18.13;;;13.00;;
81807;SDS011;71241;13.676;100.700;2023-10-13T01:13:40;16.55;;;12.32;;
81807;SDS011;71241;13.676;100.700;2023-10-13T01:16:11;17.75;;;11.27;;
81807;SDS011;71241;13.676;100.700;2023-10-13T01:18:42;14.35;;;11.00;;
81807;SDS011;71241;13.676;100.700;2023-10-13T01:21:21;13.30;;;9.43;;
81807;SDS011;71241;13.676;100.700;2023-10-13T01:23:58;11.93;;;10.18;;
81807;SDS011;71241;13.676;100.700;2023-10-13T01:26:29;13.00;;;10.00;;
81807;SDS011;71241;13.676;100.700;2023-10-13T01:29:02;14.43;;;10.18;;
81807;SDS011;71241;13.676;100.700;2023-10-13T01:31:35;14.23;;;12.48;;
81807;SDS011;71241;13.676;100.700;2023-10-13T01:34:06;11.38;;;10.32;;
81807;SDS011;71241;13.676;100.700;2023-10-13T01:36:41;18.98;;;17.33;;
81807;SDS011;71241;13.676;100.700;2023-10-13T01:39:16;13.30;;;11.77;;
81807;SDS011;71241;13.676;100.700;2023-10-13T01:41:48;16.23;;;11.00;;
81807;SDS011;71241;13.676;100.700;2023-10-13T01:44:24;12.55;;;9.93;;
81807;SDS011;71241;13.676;100.700;2023-10-13T01:46:59;11.88;;;10.65;;
81807;SDS011;71241;13.676;100.700;2023-10-13T01:49:37;14.18;;;11.30;;
81807;SDS011;71241;13.676;100.700;2023-10-13T01:52:19;13.68;;;11.55;;
81807;SDS011;71241;13.676;100.700;2023-10-13T01:55:01;14.18;;;11.27;;
81807;SDS011;71241;13.676;100.700;2023-10-13T01:57:33;14.55;;;10.93;;
81807;SDS011;71241;13.676;100.700;2023-10-13T02:00:05;14.60;;;11.05;;
81807;SDS011;71241;13.676;100.700;2023-10-13T02:02:47;15.45;;;10.95;;
81807;SDS011;71241;13.676;100.700;2023-10-13T02:05:20;15.20;;;11.52;;
81807;SDS011;71241;13.676;100.700;2023-10-13T02:07:56;10.27;;;9.10;;
81807;SDS011;71241;13.676;100.700;2023-10-13T02:10:32;10.57;;;9.48;;
81807;SDS011;71241;13.676;100.700;2023-10-13T02:13:03;10.55;;;9.55;;
81807;SDS011;71241;13.676;100.700;2023-10-13T02:15:33;11.40;;;10.27;;
81807;SDS011;71241;13.676;100.700;2023-10-13T02:18:06;12.55;;;11.45;;
81807;SDS011;71241;13.676;100.700;2023-10-13T02:20:38;10.98;;;9.90;;
81807;SDS011;71241;13.676;100.700;2023-10-13T02:23:13;16.92;;;15.65;;
81807;SDS011;71241;13.676;100.700;2023-10-13T02:25:46;23.83;;;22.20;;
81807;SDS011;71241;13.676;100.700;2023-10-13T02:28:16;16.52;;;15.23;;
81807;SDS011;71241;13.676;100.700;2023-10-13T02:30:50;15.65;;;14.35;;
81807;SDS011;71241;13.676;100.700;2023-10-13T02:33:22;9.93;;;9.02;;
81807;SDS011;71241;13.676;100.700;2023-10-13T02:35:59;8.80;;;7.75;;
81807;SDS011;71241;13.676;100.700;2023-10-13T02:38:34;8.48;;;7.15;;
81807;SDS011;71241;13.676;100.700;2023-10-13T02:41:18;7.40;;;6.60;;
81807;SDS011;71241;13.676;100.700;2023-10-13T02:43:55;7.85;;;6.95;;
81807;SDS011;71241;13.676;100.700;2023-10-13T02:46:26;6.68;;;6.07;;
81807;SDS011;71241;13.676;100.700;2023-10-13T02:48:58;7.60;;;6.93;;
81807;SDS011;71241;13.676;100.700;2023-10-13T02:51:31;7.95;;;6.97;;
81807;SDS011;71241;13.676;100.700;2023-10-13T02:54:05;7.97;;;7.07;;
81807;SDS011;71241;13.676;100.700;2023-10-13T02:56:42;8.80;;;7.90;;
81807;SDS011;71241;13.676;100.700;2023-10-13T02:59:26;9.20;;;8.40;;
81807;SDS011;71241;13.676;100.700;2023-10-13T03:02:03;9.82;;;8.93;;
81807;SDS011;71241;13.676;100.700;2023-10-13T03:04:47;17.17;;;9.48;;
81807;SDS011;71241;13.676;100.700;2023-10-13T03:07:17;9.23;;;8.32;;
81807;SDS011;71241;13.676;100.700;2023-10-13T03:09:52;9.27;;;8.38;;
81807;SDS011;71241;13.676;100.700;2023-10-13T03:12:28;9.40;;;8.55;;
81807;SDS011;71241;13.676;100.700;2023-10-13T03:15:02;10.95;;;10.05;;
81807;SDS011;71241;13.676;100.700;2023-10-13T03:17:46;8.80;;;7.90;;
81807;SDS011;71241;13.676;100.700;2023-10-13T03:20:17;10.63;;;6.90;;
81807;SDS011;71241;13.676;100.700;2023-10-13T03:22:53;11.52;;;10.70;;
81807;SDS011;71241;13.676;100.700;2023-10-13T03:25:24;8.60;;;7.80;;
81807;SDS011;71241;13.676;100.700;2023-10-13T03:28:13;10.60;;;9.80;;
81807;SDS011;71241;13.676;100.700;2023-10-13T03:30:46;9.82;;;8.95;;
81807;SDS011;71241;13.676;100.700;2023-10-13T03:33:21;8.95;;;8.15;;
81807;SDS011;71241;13.676;100.700;2023-10-13T03:35:55;9.68;;;8.93;;
81807;SDS011;71241;13.676;100.700;2023-10-13T03:38:35;9.75;;;8.77;;
81807;SDS011;71241;13.676;100.700;2023-10-13T03:41:08;10.05;;;8.70;;
81807;SDS011;71241;13.676;100.700;2023-10-13T03:43:51;10.38;;;9.57;;
81807;SDS011;71241;13.676;100.700;2023-10-13T03:46:36;11.40;;;10.32;;
81807;SDS011;71241;13.676;100.700;2023-10-13T03:49:10;8.45;;;7.72;;
81807;SDS011;71241;13.676;100.700;2023-10-13T03:51:42;9.65;;;8.82;;
81807;SDS011;71241;13.676;100.700;2023-10-13T03:54:12;12.50;;;11.40;;
81807;SDS011;71241;13.676;100.700;2023-10-13T03:56:45;10.82;;;9.75;;
81807;SDS011;71241;13.676;100.700;2023-10-13T03:59:22;12.65;;;11.25;;
81807;SDS011;71241;13.676;100.700;2023-10-13T04:01:53;11.93;;;10.93;;
81807;SDS011;71241;13.676;100.700;2023-10-13T04:04:32;11.77;;;9.73;;
81807;SDS011;71241;13.676;100.700;2023-10-13T04:07:15;11.55;;;10.55;;
81807;SDS011;71241;13.676;100.700;2023-10-13T04:10:06;11.95;;;10.77;;
81807;SDS011;71241;13.676;100.700;2023-10-13T04:12:57;10.73;;;9.63;;
81807;SDS011;71241;13.676;100.700;2023-10-13T04:15:41;10.20;;;9.20;;
81807;SDS011;71241;13.676;100.700;2023-10-13T04:18:32;10.15;;;9.30;;
81807;SDS011;71241;13.676;100.700;2023-10-13T04:21:14;12.35;;;11.18;;
81807;SDS011;71241;13.676;100.700;2023-10-13T04:23:56;11.95;;;10.90;;
81807;SDS011;71241;13.676;100.700;2023-10-13T04:26:48;12.18;;;9.63;;
81807;SDS011;71241;13.676;100.700;2023-10-13T04:29:30;10.93;;;9.90;;
81807;SDS011;71241;13.676;100.700;2023-10-13T04:32:14;10.57;;;9.02;;
81807;SDS011;71241;13.676;100.700;2023-10-13T04:34:57;8.20;;;7.60;;
81807;SDS011;71241;13.676;100.700;2023-10-13T04:37:39;11.25;;;10.25;;
81807;SDS011;71241;13.676;100.700;2023-10-13T04:40:40;9.20;;;8.45;;
81807;SDS011;71241;13.676;100.700;2023-10-13T04:43:28;8.88;;;8.18;;
81807;SDS011;71241;13.676;100.700;2023-10-13T04:46:10;9.48;;;8.48;;
81807;SDS011;71241;13.676;100.700;2023-10-13T04:48:54;10.45;;;9.48;;
81807;SDS011;71241;13.676;100.700;2023-10-13T04:51:29;10.45;;;9.35;;
81807;SDS011;71241;13.676;100.700;2023-10-13T04:54:19;9.25;;;8.45;;
81807;SDS011;71241;13.676;100.700;2023-10-13T04:57:02;11.35;;;10.43;;
81807;SDS011;71241;13.676;100.700;2023-10-13T04:59:44;11.82;;;11.10;;
81807;SDS011;71241;13.676;100.700;2023-10-13T05:02:27;13.07;;;12.07;;
81807;SDS011;71241;13.676;100.700;2023-10-13T05:05:12;9.07;;;8.27;;
81807;SDS011;71241;13.676;100.700;2023-10-13T05:08:06;7.47;;;6.78;;
81807;SDS011;71241;13.676;100.700;2023-10-13T05:10:48;7.90;;;7.10;;
81807;SDS011;71241;13.676;100.700;2023-10-13T05:13:30;8.18;;;7.47;;
81807;SDS011;71241;13.676;100.700;2023-10-13T05:16:12;9.20;;;7.28;;
81807;SDS011;71241;13.676;100.700;2023-10-13T05:18:57;8.20;;;7.40;;
81807;SDS011;71241;13.676;100.700;2023-10-13T05:21:41;8.23;;;7.47;;
81807;SDS011;71241;13.676;100.700;2023-10-13T05:24:24;8.45;;;7.38;;
81807;SDS011;71241;13.676;100.700;2023-10-13T05:27:06;6.65;;;6.15;;
81807;SDS011;71241;13.676;100.700;2023-10-13T05:29:48;7.00;;;6.30;;
81807;SDS011;71241;13.676;100.700;2023-10-13T05:32:30;12.05;;;11.05;;
81807;SDS011;71241;13.676;100.700;2023-10-13T05:35:13;6.85;;;6.25;;
81807;SDS011;71241;13.676;100.700;2023-10-13T05:37:57;7.00;;;6.38;;
81807;SDS011;71241;13.676;100.700;2023-10-13T05:40:39;6.85;;;5.95;;
81807;SDS011;71241;13.676;100.700;2023-10-13T05:43:21;5.63;;;4.68;;
81807;SDS011;71241;13.676;100.700;2023-10-13T05:46:03;6.22;;;5.47;;
81807;SDS011;71241;13.676;100.700;2023-10-13T05:48:46;5.30;;;4.88;;
81807;SDS011;71241;13.676;100.700;2023-10-13T05:51:28;6.05;;;5.53;;
81807;SDS011;71241;13.676;100.700;2023-10-13T05:54:21;6.05;;;5.53;;
81807;SDS011;71241;13.676;100.700;2023-10-13T05:56:58;5.55;;;5.05;;
81807;SDS011;71241;13.676;100.700;2023-10-13T05:59:41;6.68;;;5.80;;
81807;SDS011;71241;13.676;100.700;2023-10-13T06:05:07;6.05;;;5.45;;
81807;SDS011;71241;13.676;100.700;2023-10-13T06:07:53;5.78;;;5.28;;
81807;SDS011;71241;13.676;100.700;2023-10-13T06:10:37;7.28;;;5.30;;
81807;SDS011;71241;13.676;100.700;2023-10-13T06:13:20;6.25;;;5.75;;
81807;SDS011;71241;13.676;100.700;2023-10-13T06:16:04;7.30;;;6.80;;
81807;SDS011;71241;13.676;100.700;2023-10-13T06:18:47;7.30;;;5.53;;
81807;SDS011;71241;13.676;100.700;2023-10-13T06:21:29;5.80;;;5.30;;
81807;SDS011;71241;13.676;100.700;2023-10-13T06:24:11;7.07;;;6.35;;
81807;SDS011;71241;13.676;100.700;2023-10-13T06:26:55;4.95;;;4.53;;
81807;SDS011;71241;13.676;100.700;2023-10-13T06:29:37;10.98;;;10.13;;
81807;SDS011;71241;13.676;100.700;2023-10-13T06:32:07;7.43;;;6.80;;
81807;SDS011;71241;13.676;100.700;2023-10-13T06:34:41;5.72;;;5.22;;
81807;SDS011;71241;13.676;100.700;2023-10-13T06:37:23;5.47;;;4.97;;
81807;SDS011;71241;13.676;100.700;2023-10-13T06:40:00;5.63;;;4.30;;
81807;SDS011;71241;13.676;100.700;2023-10-13T06:42:38;4.80;;;4.40;;
81807;SDS011;71241;13.676;100.700;2023-10-13T06:45:11;5.63;;;4.90;;
81807;SDS011;71241;13.676;100.700;2023-10-13T06:47:45;5.10;;;4.70;;
81807;SDS011;71241;13.676;100.700;2023-10-13T06:50:17;5.90;;;5.05;;
81807;SDS011;71241;13.676;100.700;2023-10-13T06:52:54;5.68;;;4.95;;
81807;SDS011;71241;13.676;100.700;2023-10-13T06:55:24;6.15;;;4.55;;
81807;SDS011;71241;13.676;100.700;2023-10-13T06:58:05;6.25;;;4.65;;
81807;SDS011;71241;13.676;100.700;2023-10-13T07:00:42;5.75;;;5.15;;
81807;SDS011;71241;13.676;100.700;2023-10-13T07:03:22;6.03;;;5.50;;
81807;SDS011;71241;13.676;100.700;2023-10-13T07:05:55;6.13;;;5.55;;
81807;SDS011;71241;13.676;100.700;2023-10-13T07:08:28;5.65;;;5.10;;
81807;SDS011;71241;13.676;100.700;2023-10-13T07:11:00;4.90;;;4.50;;
81807;SDS011;71241;13.676;100.700;2023-10-13T07:13:33;6.90;;;5.15;;
81807;SDS011;71241;13.676;100.700;2023-10-13T07:16:08;7.05;;;4.63;;
81807;SDS011;71241;13.676;100.700;2023-10-13T07:18:56;5.03;;;4.63;;
81807;SDS011;71241;13.676;100.700;2023-10-13T07:21:33;3.95;;;3.50;;
81807;SDS011;71241;13.676;100.700;2023-10-13T07:24:05;5.13;;;4.72;;
81807;SDS011;71241;13.676;100.700;2023-10-13T07:26:40;6.03;;;5.00;;
81807;SDS011;71241;13.676;100.700;2023-10-13T07:29:28;5.15;;;4.65;;
81807;SDS011;71241;13.676;100.700;2023-10-13T07:31:59;5.07;;;4.57;;
81807;SDS011;71241;13.676;100.700;2023-10-13T07:34:33;5.07;;;4.55;;
81807;SDS011;71241;13.676;100.700;2023-10-13T07:37:04;7.57;;;4.63;;
81807;SDS011;71241;13.676;100.700;2023-10-13T07:39:41;3.95;;;3.65;;
81807;SDS011;71241;13.676;100.700;2023-10-13T07:42:12;4.68;;;4.20;;
81807;SDS011;71241;13.676;100.700;2023-10-13T07:44:50;11.82;;;4.45;;
81807;SDS011;71241;13.676;100.700;2023-10-13T07:47:24;5.30;;;4.80;;
81807;SDS011;71241;13.676;100.700;2023-10-13T07:49:57;4.63;;;4.22;;
81807;SDS011;71241;13.676;100.700;2023-10-13T07:52:27;5.03;;;4.60;;
81807;SDS011;71241;13.676;100.700;2023-10-13T07:55:10;4.55;;;4.22;;
81807;SDS011;71241;13.676;100.700;2023-10-13T07:57:43;5.15;;;4.75;;
81807;SDS011;71241;13.676;100.700;2023-10-13T08:00:25;5.93;;;5.32;;
81807;SDS011;71241;13.676;100.700;2023-10-13T08:03:07;4.88;;;4.38;;
81807;SDS011;71241;13.676;100.700;2023-10-13T08:05:58;5.70;;;4.78;;
81807;SDS011;71241;13.676;100.700;2023-10-13T08:08:36;5.65;;;5.13;;
81807;SDS011;71241;13.676;100.700;2023-10-13T08:11:10;11.88;;;10.60;;
81807;SDS011;71241;13.676;100.700;2023-10-13T08:13:54;13.45;;;12.07;;
81807;SDS011;71241;13.676;100.700;2023-10-13T08:16:41;15.40;;;13.90;;
81807;SDS011;71241;13.676;100.700;2023-10-13T08:19:16;15.07;;;13.48;;
81807;SDS011;71241;13.676;100.700;2023-10-13T08:21:48;17.77;;;16.05;;
81807;SDS011;71241;13.676;100.700;2023-10-13T08:24:27;13.77;;;12.38;;
81807;SDS011;71241;13.676;100.700;2023-10-13T08:27:18;14.15;;;12.70;;
81807;SDS011;71241;13.676;100.700;2023-10-13T08:30:01;17.25;;;12.38;;
81807;SDS011;71241;13.676;100.700;2023-10-13T08:32:47;13.15;;;11.38;;
81807;SDS011;71241;13.676;100.700;2023-10-13T08:38:13;11.88;;;10.68;;
81807;SDS011;71241;13.676;100.700;2023-10-13T08:40:59;12.88;;;11.38;;
81807;SDS011;71241;13.676;100.700;2023-10-13T08:43:50;12.45;;;11.25;;
81807;SDS011;71241;13.676;100.700;2023-10-13T08:46:34;14.40;;;12.07;;
81807;SDS011;71241;13.676;100.700;2023-10-13T08:49:34;13.27;;;11.63;;
81807;SDS011;71241;13.676;100.700;2023-10-13T08:52:12;11.95;;;10.75;;
81807;SDS011;71241;13.676;100.700;2023-10-13T08:54:56;12.40;;;10.77;;
81807;SDS011;71241;13.676;100.700;2023-10-13T08:57:47;14.10;;;12.10;;
81807;SDS011;71241;13.676;100.700;2023-10-13T09:00:22;17.27;;;12.27;;
81807;SDS011;71241;13.676;100.700;2023-10-13T09:03:03;13.93;;;11.93;;
81807;SDS011;71241;13.676;100.700;2023-10-13T09:05:56;15.55;;;11.52;;
81807;SDS011;71241;13.676;100.700;2023-10-13T09:08:35;15.93;;;10.75;;
81807;SDS011;71241;13.676;100.700;2023-10-13T09:11:14;12.40;;;10.68;;
81807;SDS011;71241;13.676;100.700;2023-10-13T09:14:03;16.15;;;12.55;;
81807;SDS011;71241;13.676;100.700;2023-10-13T09:16:58;14.23;;;12.90;;
81807;SDS011;71241;13.676;100.700;2023-10-13T09:19:53;12.50;;;10.38;;
81807;SDS011;71241;13.676;100.700;2023-10-13T09:22:29;12.40;;;9.68;;
81807;SDS011;71241;13.676;100.700;2023-10-13T09:25:09;14.40;;;9.27;;
81807;SDS011;71241;13.676;100.700;2023-10-13T09:27:43;12.30;;;9.32;;
81807;SDS011;71241;13.676;100.700;2023-10-13T09:30:20;12.43;;;9.23;;
81807;SDS011;71241;13.676;100.700;2023-10-13T09:33:02;13.43;;;9.70;;
81807;SDS011;71241;13.676;100.700;2023-10-13T09:35:44;11.52;;;10.07;;
81807;SDS011;71241;13.676;100.700;2023-10-13T09:38:24;12.80;;;9.23;;
81807;SDS011;71241;13.676;100.700;2023-10-13T09:40:55;16.33;;;10.95;;
81807;SDS011;71241;13.676;100.700;2023-10-13T09:43:27;10.57;;;9.48;;
81807;SDS011;71241;13.676;100.700;2023-10-13T09:46:01;11.38;;;8.68;;
81807;SDS011;71241;13.676;100.700;2023-10-13T09:48:32;11.52;;;9.35;;
81807;SDS011;71241;13.676;100.700;2023-10-13T09:51:04;10.93;;;8.45;;
81807;SDS011;71241;13.676;100.700;2023-10-13T09:53:39;12.68;;;9.52;;
81807;SDS011;71241;13.676;100.700;2023-10-13T09:56:35;12.98;;;8.73;;
81807;SDS011;71241;13.676;100.700;2023-10-13T09:59:36;12.48;;;8.90;;
81807;SDS011;71241;13.676;100.700;2023-10-13T10:02:21;9.45;;;8.55;;
81807;SDS011;71241;13.676;100.700;2023-10-13T10:04:55;11.45;;;8.93;;
81807;SDS011;71241;13.676;100.700;2023-10-13T10:07:42;9.95;;;8.93;;
81807;SDS011;71241;13.676;100.700;2023-10-13T10:10:22;10.07;;;8.82;;
81807;SDS011;71241;13.676;100.700;2023-10-13T10:12:57;10.60;;;8.73;;
81807;SDS011;71241;13.676;100.700;2023-10-13T10:15:32;9.45;;;8.48;;
81807;SDS011;71241;13.676;100.700;2023-10-13T10:18:17;10.32;;;9.32;;
81807;SDS011;71241;13.676;100.700;2023-10-13T10:20:51;12.20;;;9.32;;
81807;SDS011;71241;13.676;100.700;2023-10-13T10:23:35;14.02;;;9.57;;
81807;SDS011;71241;13.676;100.700;2023-10-13T10:26:11;11.90;;;9.05;;
81807;SDS011;71241;13.676;100.700;2023-10-13T10:28:49;11.43;;;9.32;;
81807;SDS011;71241;13.676;100.700;2023-10-13T10:31:19;11.15;;;8.80;;
81807;SDS011;71241;13.676;100.700;2023-10-13T10:34:11;11.25;;;9.82;;
81807;SDS011;71241;13.676;100.700;2023-10-13T10:36:44;12.50;;;10.70;;
81807;SDS011;71241;13.676;100.700;2023-10-13T10:39:33;13.88;;;9.77;;
81807;SDS011;71241;13.676;100.700;2023-10-13T10:42:19;8.18;;;7.30;;
81807;SDS011;71241;13.676;100.700;2023-10-13T10:44:58;10.15;;;8.98;;
81807;SDS011;71241;13.676;100.700;2023-10-13T10:47:38;11.02;;;10.20;;
81807;SDS011;71241;13.676;100.700;2023-10-13T10:50:24;10.55;;;9.75;;
81807;SDS011;71241;13.676;100.700;2023-10-13T10:53:04;8.13;;;7.32;;
81807;SDS011;71241;13.676;100.700;2023-10-13T10:55:38;9.35;;;8.55;;
81807;SDS011;71241;13.676;100.700;2023-10-13T10:58:10;7.18;;;6.53;;
81807;SDS011;71241;13.676;100.700;2023-10-13T11:01:06;7.85;;;6.88;;
81807;SDS011;71241;13.676;100.700;2023-10-13T11:03:41;5.78;;;4.85;;
81807;SDS011;71241;13.676;100.700;2023-10-13T11:06:12;5.20;;;4.57;;
81807;SDS011;71241;13.676;100.700;2023-10-13T11:08:49;5.45;;;4.80;;
81807;SDS011;71241;13.676;100.700;2023-10-13T11:11:31;6.55;;;5.07;;
81807;SDS011;71241;13.676;100.700;2023-10-13T11:14:06;5.78;;;5.13;;
81807;SDS011;71241;13.676;100.700;2023-10-13T11:19:51;8.45;;;5.28;;
81807;SDS011;71241;13.676;100.700;2023-10-13T11:22:25;5.60;;;5.03;;
81807;SDS011;71241;13.676;100.700;2023-10-13T11:25:05;7.30;;;6.07;;
81807;SDS011;71241;13.676;100.700;2023-10-13T11:27:39;6.28;;;5.68;;
81807;SDS011;71241;13.676;100.700;2023-10-13T11:30:31;6.18;;;5.68;;
81807;SDS011;71241;13.676;100.700;2023-10-13T11:33:10;5.93;;;5.32;;
81807;SDS011;71241;13.676;100.700;2023-10-13T11:35:44;7.30;;;6.60;;
81807;SDS011;71241;13.676;100.700;2023-10-13T11:41:19;7.88;;;7.10;;
81807;SDS011;71241;13.676;100.700;2023-10-13T11:46:36;9.90;;;5.80;;
81807;SDS011;71241;13.676;100.700;2023-10-13T11:49:37;11.73;;;8.60;;
81807;SDS011;71241;13.676;100.700;2023-10-13T11:52:07;12.35;;;8.90;;
81807;SDS011;71241;13.676;100.700;2023-10-13T11:54:45;12.23;;;9.68;;
81807;SDS011;71241;13.676;100.700;2023-10-13T11:57:16;12.15;;;10.43;;
81807;SDS011;71241;13.676;100.700;2023-10-13T11:59:48;16.63;;;14.05;;
81807;SDS011;71241;13.676;100.700;2023-10-13T12:02:40;20.70;;;15.63;;
81807;SDS011;71241;13.676;100.700;2023-10-13T12:05:22;15.90;;;11.30;;
81807;SDS011;71241;13.676;100.700;2023-10-13T12:08:06;16.33;;;10.63;;
81807;SDS011;71241;13.676;100.700;2023-10-13T12:10:49;11.38;;;9.82;;
81807;SDS011;71241;13.676;100.700;2023-10-13T12:13:29;9.75;;;8.68;;
81807;SDS011;71241;13.676;100.700;2023-10-13T12:15:59;10.32;;;9.38;;
81807;SDS011;71241;13.676;100.700;2023-10-13T12:18:47;12.63;;;11.32;;
81807;SDS011;71241;13.676;100.700;2023-10-13T12:21:22;9.38;;;8.50;;
81807;SDS011;71241;13.676;100.700;2023-10-13T12:23:53;9.80;;;9.00;;
81807;SDS011;71241;13.676;100.700;2023-10-13T12:26:23;10.32;;;9.38;;
81807;SDS011;71241;13.676;100.700;2023-10-13T12:29:01;9.77;;;8.88;;
81807;SDS011;71241;13.676;100.700;2023-10-13T12:31:35;12.88;;;11.75;;
81807;SDS011;71241;13.676;100.700;2023-10-13T12:36:48;11.45;;;10.38;;
81807;SDS011;71241;13.676;100.700;2023-10-13T12:39:34;11.15;;;10.15;;
81807;SDS011;71241;13.676;100.700;2023-10-13T12:42:16;9.93;;;8.15;;
81807;SDS011;71241;13.676;100.700;2023-10-13T12:44:59;8.52;;;7.72;;
81807;SDS011;71241;13.676;100.700;2023-10-13T12:47:41;9.35;;;6.93;;
81807;SDS011;71241;13.676;100.700;2023-10-13T12:50:25;8.90;;;8.05;;
81807;SDS011;71241;13.676;100.700;2023-10-13T12:53:13;8.75;;;7.85;;
81807;SDS011;71241;13.676;100.700;2023-10-13T12:55:55;11.02;;;7.45;;
81807;SDS011;71241;13.676;100.700;2023-10-13T12:58:29;9.13;;;7.32;;
81807;SDS011;71241;13.676;100.700;2023-10-13T13:01:00;8.70;;;7.28;;
81807;SDS011;71241;13.676;100.700;2023-10-13T13:03:35;11.23;;;7.95;;
81807;SDS011;71241;13.676;100.700;2023-10-13T13:06:17;8.70;;;7.57;;
81807;SDS011;71241;13.676;100.700;2023-10-13T13:08:53;10.07;;;7.40;;
81807;SDS011;71241;13.676;100.700;2023-10-13T13:11:25;12.48;;;7.70;;
81807;SDS011;71241;13.676;100.700;2023-10-13T13:13:59;9.32;;;8.05;;
81807;SDS011;71241;13.676;100.700;2023-10-13T13:16:30;10.80;;;8.35;;
81807;SDS011;71241;13.676;100.700;2023-10-13T13:19:00;12.52;;;11.07;;
81807;SDS011;71241;13.676;100.700;2023-10-13T13:21:44;8.88;;;6.43;;
81807;SDS011;71241;13.676;100.700;2023-10-13T13:24:17;11.57;;;6.88;;
81807;SDS011;71241;13.676;100.700;2023-10-13T13:26:48;10.35;;;7.00;;
81807;SDS011;71241;13.676;100.700;2023-10-13T13:29:23;7.85;;;6.63;;
81807;SDS011;71241;13.676;100.700;2023-10-13T13:32:01;15.68;;;7.97;;
81807;SDS011;71241;13.676;100.700;2023-10-13T13:34:34;8.30;;;7.30;;
81807;SDS011;71241;13.676;100.700;2023-10-13T13:37:06;11.02;;;6.90;;
81807;SDS011;71241;13.676;100.700;2023-10-13T13:39:36;10.10;;;6.55;;
81807;SDS011;71241;13.676;100.700;2023-10-13T13:42:12;9.35;;;7.65;;
81807;SDS011;71241;13.676;100.700;2023-10-13T13:44:46;11.77;;;7.47;;
81807;SDS011;71241;13.676;100.700;2023-10-13T13:47:17;12.55;;;8.20;;
81807;SDS011;71241;13.676;100.700;2023-10-13T13:49:47;10.73;;;7.43;;
81807;SDS011;71241;13.676;100.700;2023-10-13T13:52:25;11.00;;;7.90;;
81807;SDS011;71241;13.676;100.700;2023-10-13T13:55:06;8.65;;;6.55;;
81807;SDS011;71241;13.676;100.700;2023-10-13T13:57:39;10.70;;;7.50;;
81807;SDS011;71241;13.676;100.700;2023-10-13T14:00:12;11.02;;;7.38;;
81807;SDS011;71241;13.676;100.700;2023-10-13T14:02:48;12.13;;;7.82;;
81807;SDS011;71241;13.676;100.700;2023-10-13T14:05:19;11.27;;;8.07;;
81807;SDS011;71241;13.676;100.700;2023-10-13T14:10:41;11.82;;;8.30;;
81807;SDS011;71241;13.676;100.700;2023-10-13T14:13:24;11.05;;;8.50;;
81807;SDS011;71241;13.676;100.700;2023-10-13T14:16:17;11.38;;;8.77;;
81807;SDS011;71241;13.676;100.700;2023-10-13T14:18:51;10.68;;;7.88;;
81807;SDS011;71241;13.676;100.700;2023-10-13T14:21:22;10.57;;;9.57;;
81807;SDS011;71241;13.676;100.700;2023-10-13T14:23:55;10.18;;;9.18;;
81807;SDS011;71241;13.676;100.700;2023-10-13T14:26:29;12.32;;;8.98;;
81807;SDS011;71241;13.676;100.700;2023-10-13T14:29:03;12.18;;;8.43;;
81807;SDS011;71241;13.676;100.700;2023-10-13T14:34:10;10.85;;;8.73;;
81807;SDS011;71241;13.676;100.700;2023-10-13T14:36:42;10.13;;;9.05;;
81807;SDS011;71241;13.676;100.700;2023-10-13T14:39:19;12.55;;;8.90;;
81807;SDS011;71241;13.676;100.700;2023-10-13T14:41:50;17.00;;;14.25;;
81807;SDS011;71241;13.676;100.700;2023-10-13T14:44:21;14.85;;;13.38;;
81807;SDS011;71241;13.676;100.700;2023-10-13T14:46:55;12.40;;;11.25;;
81807;SDS011;71241;13.676;100.700;2023-10-13T14:49:26;12.80;;;11.60;;
81807;SDS011;71241;13.676;100.700;2023-10-13T14:51:57;10.05;;;7.38;;
81807;SDS011;71241;13.676;100.700;2023-10-13T14:54:30;15.13;;;7.40;;
81807;SDS011;71241;13.676;100.700;2023-10-13T14:57:04;12.45;;;8.30;;
81807;SDS011;71241;13.676;100.700;2023-10-13T14:59:37;11.10;;;7.65;;
81807;SDS011;71241;13.676;100.700;2023-10-13T15:02:11;12.55;;;7.20;;
81807;SDS011;71241;13.676;100.700;2023-10-13T15:04:43;13.45;;;7.47;;
81807;SDS011;71241;13.676;100.700;2023-10-13T15:07:17;14.38;;;7.20;;
81807;SDS011;71241;13.676;100.700;2023-10-13T15:09:51;12.85;;;11.50;;
81807;SDS011;71241;13.676;100.700;2023-10-13T15:12:22;15.63;;;14.35;;
81807;SDS011;71241;13.676;100.700;2023-10-13T15:14:58;18.38;;;15.93;;
81807;SDS011;71241;13.676;100.700;2023-10-13T15:17:35;13.35;;;12.13;;
81807;SDS011;71241;13.676;100.700;2023-10-13T15:20:09;13.77;;;12.10;;
81807;SDS011;71241;13.676;100.700;2023-10-13T15:22:49;12.70;;;11.40;;
81807;SDS011;71241;13.676;100.700;2023-10-13T15:25:40;12.70;;;8.93;;
81807;SDS011;71241;13.676;100.700;2023-10-13T15:28:21;13.63;;;12.10;;
81807;SDS011;71241;13.676;100.700;2023-10-13T15:30:54;14.20;;;11.85;;
81807;SDS011;71241;13.676;100.700;2023-10-13T15:33:33;16.67;;;13.75;;
81807;SDS011;71241;13.676;100.700;2023-10-13T15:36:12;15.77;;;12.20;;
81807;SDS011;71241;13.676;100.700;2023-10-13T15:41:41;14.10;;;7.45;;